createdAt,value
2023-02-06T08:13:56.671Z,-1.10
2023-02-06T08:15:58.579Z,-1.20
2023-02-06T08:18:00.478Z,-1.20
2023-02-06T08:20:02.580Z,-1.20
2023-02-06T08:22:04.717Z,-1.30
2023-02-06T08:24:06.820Z,-1.30
2023-02-06T08:26:13.463Z,-1.10
2023-02-06T08:28:17.107Z,-1.00
2023-02-06T08:30:19.149Z,-1.10
2023-02-06T08:32:20.899Z,-1.20
2023-02-06T08:34:22.813Z,-1.20
2023-02-06T08:36:24.878Z,-1.20
2023-02-06T08:38:26.743Z,-1.10
2023-02-06T08:40:28.632Z,-1.30
2023-02-06T08:42:30.477Z,-1.30
2023-02-06T08:44:32.925Z,-1.10
2023-02-06T08:46:35.330Z,-1.20
2023-02-06T08:48:37.227Z,-1.20
2023-02-06T08:50:42.182Z,-1.10
2023-02-06T08:52:44.048Z,-1.10
2023-02-06T08:54:45.995Z,-1.10
2023-02-06T08:56:48.408Z,-1.30
2023-02-06T08:58:50.174Z,-1.20
2023-02-06T09:00:52.666Z,-1.20
2023-02-06T09:02:55.290Z,-1.00
2023-02-06T09:04:57.252Z,-1.00
2023-02-06T09:06:59.052Z,-1.10
2023-02-06T09:09:01.104Z,-1.20
2023-02-06T09:11:11.798Z,-1.10
2023-02-06T09:13:13.741Z,-1.10
2023-02-06T09:15:15.575Z,-1.10
2023-02-06T09:17:17.686Z,-1.20
2023-02-06T09:19:19.623Z,-1.30
2023-02-06T09:21:23.209Z,-1.20
2023-02-06T09:23:25.571Z,-1.30
2023-02-06T09:25:27.436Z,-1.20
2023-02-06T09:27:29.330Z,-1.10
2023-02-06T09:29:31.968Z,-1.30
2023-02-06T09:31:39.717Z,-1.20
2023-02-06T09:33:41.620Z,-1.20
2023-02-06T09:35:43.793Z,-1.30
2023-02-06T09:37:45.740Z,-1.10
2023-02-06T09:39:47.565Z,-1.10
2023-02-06T09:42:04.433Z,-1.20
2023-02-06T09:44:15.129Z,-1.20
2023-02-06T09:46:21.282Z,-1.20
2023-02-06T09:48:27.737Z,-1.10
2023-02-06T09:50:45.271Z,-1.10
2023-02-06T09:53:13.809Z,-1.10
2023-02-06T09:55:34.977Z,-1.10
2023-02-06T09:57:51.423Z,-1.00
2023-02-06T10:00:01.331Z,-1.00
2023-02-06T10:02:36.069Z,-0.80
2023-02-06T10:05:00.200Z,-0.90
2023-02-06T10:07:29.375Z,-0.80
2023-02-06T10:09:47.367Z,-1.00
2023-02-06T10:12:04.414Z,-0.90
2023-02-06T10:14:17.276Z,-0.90
2023-02-06T10:16:26.261Z,-1.00
2023-02-06T10:18:47.910Z,-0.80
2023-02-06T10:20:59.443Z,-0.90
2023-02-06T10:23:27.093Z,-1.00
2023-02-06T10:25:40.366Z,-0.90
2023-02-06T10:27:44.261Z,-1.00
2023-02-06T10:29:48.439Z,-0.90
2023-02-06T10:32:17.736Z,-1.00
2023-02-06T10:34:28.491Z,-1.10
2023-02-06T10:37:15.609Z,-1.00
2023-02-06T10:39:32.704Z,-0.90
2023-02-06T10:42:01.970Z,-1.00
2023-02-06T10:44:15.958Z,-0.80
2023-02-06T10:46:23.789Z,-0.90
2023-02-06T10:48:29.424Z,-0.80
2023-02-06T10:50:43.059Z,-1.00
2023-02-06T10:52:46.189Z,-0.90
2023-02-06T10:54:53.683Z,-1.10
2023-02-06T10:56:58.406Z,-1.10
2023-02-06T10:59:11.231Z,-0.90
2023-02-06T11:01:25.445Z,-0.80
2023-02-06T11:03:31.983Z,-0.70
2023-02-06T11:05:34.379Z,-0.80
2023-02-06T11:07:42.746Z,-0.60
2023-02-06T11:09:45.212Z,-0.40
2023-02-06T11:11:51.333Z,-0.50
2023-02-06T11:14:00.599Z,-0.60
2023-02-06T11:16:06.253Z,-0.70
2023-02-06T11:18:13.995Z,-0.60
2023-02-06T11:20:18.037Z,-0.60
2023-02-06T11:22:29.418Z,-0.50
2023-02-06T11:24:31.632Z,-0.60
2023-02-06T11:26:33.553Z,-0.50
2023-02-06T11:28:38.875Z,-0.40
2023-02-06T11:30:43.004Z,-0.80
2023-02-06T11:32:59.074Z,-0.70
2023-02-06T11:35:26.340Z,-0.80
2023-02-06T11:37:32.332Z,-0.80
2023-02-06T11:39:39.370Z,-0.90
2023-02-06T11:41:41.280Z,-0.90
2023-02-06T11:43:43.110Z,-0.90
2023-02-06T11:45:47.396Z,-0.90
2023-02-06T11:47:49.470Z,-0.80
2023-02-06T11:49:51.542Z,-0.90
2023-02-06T11:51:59.922Z,-0.80
2023-02-06T11:54:04.060Z,-0.80
2023-02-06T11:56:17.721Z,-0.80
2023-02-06T11:58:25.753Z,-0.80
2023-02-06T14:13:41.653Z,-1.50
2023-02-06T14:16:22.070Z,-1.60
2023-02-06T14:18:47.494Z,-1.70
2023-02-06T14:21:04.190Z,-1.60
2023-02-06T14:23:27.213Z,-1.70
2023-02-06T14:25:45.734Z,-1.70
2023-02-06T14:28:02.552Z,-1.70
2023-02-06T14:30:13.059Z,-1.70
2023-02-06T14:32:17.653Z,-1.70
2023-02-06T14:34:57.276Z,-1.60
2023-02-06T14:37:20.681Z,-1.60
2023-02-06T14:39:50.923Z,-1.60
2023-02-06T14:41:53.212Z,-1.60
2023-02-06T14:43:55.347Z,-1.60
2023-02-06T14:46:07.588Z,-1.60
2023-02-06T14:48:34.123Z,-1.60
2023-02-06T14:50:40.506Z,-1.60
2023-02-06T14:52:42.417Z,-1.60
2023-02-06T14:54:44.369Z,-1.60
2023-02-06T14:56:46.443Z,-1.60
2023-02-06T14:58:48.668Z,-1.60
2023-02-06T15:00:50.568Z,-1.60
2023-02-06T15:03:02.816Z,-1.50
2023-02-06T15:05:05.915Z,-1.60
2023-02-06T15:07:29.660Z,-1.60
2023-02-06T15:09:33.098Z,-1.70
2023-02-06T15:11:35.186Z,-1.60
2023-02-06T15:13:37.757Z,-1.60
2023-02-06T15:15:53.189Z,-1.70
2023-02-06T15:17:59.559Z,-1.80
2023-02-06T15:20:24.728Z,-1.80
2023-02-06T15:22:30.345Z,-1.80
2023-02-06T15:24:39.978Z,-1.90
2023-02-06T15:26:45.290Z,-1.80
2023-02-06T15:28:47.349Z,-1.90
2023-02-06T15:30:59.633Z,-1.90
2023-02-06T15:33:02.028Z,-1.80
2023-02-06T15:35:18.553Z,-1.90
2023-02-06T15:37:33.322Z,-2.00
2023-02-06T15:39:35.857Z,-2.00
2023-02-06T15:41:39.572Z,-2.00
2023-02-06T15:43:44.204Z,-2.00
2023-02-06T15:45:48.258Z,-2.00
2023-02-06T15:47:52.505Z,-2.00
2023-02-06T15:49:55.936Z,-1.90
2023-02-06T15:51:58.517Z,-1.80
2023-02-06T15:54:19.728Z,-2.00
2023-02-06T15:56:30.740Z,-2.00
2023-02-06T15:58:33.702Z,-2.00
2023-02-06T16:00:37.789Z,-2.00
2023-02-06T16:02:41.048Z,-2.10
2023-02-06T16:04:42.921Z,-2.00
2023-02-06T16:06:45.676Z,-2.00
2023-02-06T16:08:55.204Z,-2.00
2023-02-06T16:11:02.124Z,-2.10
2023-02-06T16:13:10.995Z,-2.00
2023-02-06T16:16:07.151Z,-2.00
2023-02-06T16:18:40.941Z,-2.10
2023-02-06T16:20:44.119Z,-2.00
2023-02-06T16:22:45.973Z,-2.00
2023-02-06T16:24:48.776Z,-2.10
2023-02-06T16:26:52.610Z,-2.00
2023-02-06T16:29:14.200Z,-2.10
2023-02-06T16:31:16.420Z,-2.10
2023-02-06T16:33:41.519Z,-2.10
2023-02-06T16:35:43.401Z,-2.10
2023-02-06T16:37:45.683Z,-2.10
2023-02-06T16:39:47.879Z,-2.10
2023-02-06T16:41:51.491Z,-2.10
2023-02-06T16:43:54.741Z,-2.00
2023-02-06T16:45:56.724Z,-2.00
2023-02-06T16:47:58.639Z,-2.00
2023-02-06T16:50:00.400Z,-2.00
2023-02-06T16:52:02.293Z,-2.10
2023-02-06T16:54:05.966Z,-2.00
2023-02-06T16:56:14.611Z,-2.00
2023-02-06T16:58:23.087Z,-2.00
2023-02-06T17:00:31.485Z,-2.00
2023-02-06T17:02:34.487Z,-1.90
2023-02-06T17:04:36.712Z,-1.90
2023-02-06T17:06:39.081Z,-1.90
2023-02-06T17:08:41.515Z,-1.80
2023-02-06T17:10:43.651Z,-1.90
2023-02-06T17:12:46.454Z,-1.80
2023-02-06T17:14:49.054Z,-1.80
2023-02-06T17:16:50.982Z,-1.80
2023-02-06T17:18:53.366Z,-1.80
2023-02-06T17:20:56.549Z,-1.80
2023-02-06T17:22:58.706Z,-1.80
2023-02-06T17:25:00.822Z,-1.80
2023-02-06T17:27:04.874Z,-1.70
2023-02-06T17:29:07.097Z,-1.80
2023-02-06T17:31:10.193Z,-1.80
2023-02-06T17:33:12.799Z,-1.80
2023-02-06T17:35:16.198Z,-1.80
2023-02-06T17:37:20.881Z,-1.80
2023-02-06T17:39:23.425Z,-1.80
2023-02-06T17:41:26.631Z,-1.80
2023-02-06T17:43:29.858Z,-1.90
2023-02-06T17:45:32.273Z,-1.80
2023-02-06T17:47:34.181Z,-1.90
2023-02-06T17:49:36.060Z,-1.90
2023-02-06T17:51:40.275Z,-1.90
2023-02-06T17:53:42.303Z,-1.90
2023-02-06T17:55:45.723Z,-1.90
2023-02-06T17:57:47.905Z,-1.90
2023-02-06T17:59:54.303Z,-1.90
2023-02-06T20:13:21.867Z,-2.10
2023-02-06T20:15:23.926Z,-2.20
2023-02-06T20:17:26.967Z,-2.30
2023-02-06T20:19:29.289Z,-2.40
2023-02-06T20:21:39.221Z,-2.40
2023-02-06T20:23:42.997Z,-2.40
2023-02-06T20:25:44.893Z,-2.50
2023-02-06T20:27:46.682Z,-2.60
2023-02-06T20:29:48.830Z,-2.60
2023-02-06T20:31:51.587Z,-2.70
2023-02-06T20:33:53.794Z,-2.80
2023-02-06T20:35:55.852Z,-2.90
2023-02-06T20:37:57.871Z,-2.90
2023-02-06T20:40:00.892Z,-2.90
2023-02-06T20:42:02.950Z,-2.90
2023-02-06T20:44:05.283Z,-2.90
2023-02-06T20:46:08.527Z,-3.00
2023-02-06T20:48:10.507Z,-3.10
2023-02-06T20:50:13.636Z,-3.20
2023-02-06T20:52:15.522Z,-3.20
2023-02-06T20:54:17.878Z,-3.30
2023-02-06T20:56:20.858Z,-3.40
2023-02-06T20:58:22.875Z,-3.30
2023-02-06T21:00:24.710Z,-3.30
2023-02-06T21:02:28.371Z,-3.30
2023-02-06T21:04:33.763Z,-3.40
2023-02-06T21:06:37.949Z,-3.50
2023-02-06T21:08:40.504Z,-3.40
2023-02-06T21:10:42.374Z,-3.30
2023-02-06T21:12:44.251Z,-3.30
2023-02-06T21:14:46.567Z,-3.40
2023-02-06T21:16:49.371Z,-3.50
2023-02-06T21:18:51.658Z,-3.60
2023-02-06T21:20:55.284Z,-3.50
2023-02-06T21:22:57.100Z,-3.60
2023-02-06T21:24:59.283Z,-3.50
2023-02-06T21:27:01.719Z,-3.60
2023-02-06T21:29:07.718Z,-3.70
2023-02-06T21:31:17.449Z,-3.70
2023-02-06T21:33:19.384Z,-3.70
2023-02-06T21:35:21.156Z,-3.60
2023-02-06T21:37:23.193Z,-3.70
2023-02-06T21:39:27.137Z,-3.70
2023-02-06T21:41:29.315Z,-3.70
2023-02-06T21:43:31.216Z,-3.80
2023-02-06T21:45:33.051Z,-3.70
2023-02-06T21:47:35.762Z,-3.70
2023-02-06T21:49:37.736Z,-3.70
2023-02-06T21:51:39.662Z,-3.80
2023-02-06T21:53:42.012Z,-3.90
2023-02-06T21:55:44.892Z,-3.90
2023-02-06T21:57:46.786Z,-4.00
2023-02-06T21:59:48.530Z,-4.00
2023-02-06T22:01:50.487Z,-4.00
2023-02-06T22:03:52.771Z,-4.00
2023-02-06T22:05:54.498Z,-4.10
2023-02-06T22:07:58.333Z,-4.10
2023-02-06T22:10:00.213Z,-4.10
2023-02-06T22:12:02.012Z,-4.20
2023-02-06T22:14:07.520Z,-4.10
2023-02-06T22:16:11.306Z,-4.20
2023-02-06T22:18:13.158Z,-4.20
2023-02-06T22:20:16.413Z,-4.20
2023-02-06T22:22:19.474Z,-4.30
2023-02-06T22:24:21.487Z,-4.30
2023-02-06T22:26:24.188Z,-4.40
2023-02-06T22:28:26.188Z,-4.30
2023-02-06T22:30:28.094Z,-4.30
2023-02-06T22:32:30.119Z,-4.30
2023-02-06T22:34:32.661Z,-4.40
2023-02-06T22:36:34.606Z,-4.30
2023-02-06T22:38:36.998Z,-4.40
2023-02-06T22:40:38.941Z,-4.40
2023-02-06T22:42:40.774Z,-4.30
2023-02-06T22:44:42.501Z,-4.40
2023-02-06T22:46:47.364Z,-4.40
2023-02-06T22:48:49.493Z,-4.50
2023-02-06T22:50:53.386Z,-4.60
2023-02-06T22:53:13.673Z,-4.60
2023-02-06T22:55:15.551Z,-4.60
2023-02-06T22:57:17.367Z,-4.60
2023-02-06T22:59:20.494Z,-4.60
2023-02-06T23:01:24.808Z,-4.50
2023-02-06T23:03:26.661Z,-4.50
2023-02-06T23:05:28.441Z,-4.50
2023-02-06T23:07:30.304Z,-4.60
2023-02-06T23:09:32.948Z,-4.70
2023-02-06T23:11:35.890Z,-4.60
2023-02-06T23:13:38.249Z,-4.70
2023-02-06T23:15:43.501Z,-4.60
2023-02-06T23:17:45.793Z,-4.60
2023-02-06T23:19:47.747Z,-4.70
2023-02-06T23:21:51.382Z,-4.70
2023-02-06T23:23:56.691Z,-4.80
2023-02-06T23:25:58.846Z,-4.90
2023-02-06T23:28:00.756Z,-4.90
2023-02-06T23:30:02.694Z,-4.90
2023-02-06T23:32:04.599Z,-4.90
2023-02-06T23:34:06.475Z,-4.90
2023-02-06T23:36:10.746Z,-5.00
2023-02-06T23:38:12.861Z,-5.10
2023-02-06T23:40:14.694Z,-5.00
2023-02-06T23:42:16.469Z,-5.00
2023-02-06T23:44:18.705Z,-5.00
2023-02-06T23:46:21.214Z,-4.90
2023-02-06T23:48:23.159Z,-5.00
2023-02-06T23:50:25.765Z,-4.90
2023-02-06T23:52:27.596Z,-5.00
2023-02-06T23:54:29.353Z,-5.00
2023-02-06T23:56:32.043Z,-5.00
2023-02-06T23:58:33.935Z,-4.90
